sensor_id;sensor_type;location;lat;lon;timestamp;temperature;humidity
35804;DHT22;21924;51.934;7.414;2022-10-31T00:01:53;13.20;99.90
35804;DHT22;21924;51.934;7.414;2022-10-31T00:04:38;13.20;99.90
35804;DHT22;21924;51.934;7.414;2022-10-31T00:07:22;13.10;99.90
35804;DHT22;21924;51.934;7.414;2022-10-31T00:10:06;13.00;99.90
35804;DHT22;21924;51.934;7.414;2022-10-31T00:12:50;13.00;99.90
35804;DHT22;21924;51.934;7.414;2022-10-31T00:15:35;12.90;99.90
35804;DHT22;21924;51.934;7.414;2022-10-31T00:18:19;12.80;99.90
35804;DHT22;21924;51.934;7.414;2022-10-31T00:21:03;12.70;99.90
35804;DHT22;21924;51.934;7.414;2022-10-31T00:23:47;12.70;99.90
35804;DHT22;21924;51.934;7.414;2022-10-31T00:26:32;12.60;99.90
35804;DHT22;21924;51.934;7.414;2022-10-31T00:29:16;12.60;99.90
35804;DHT22;21924;51.934;7.414;2022-10-31T00:32:00;12.60;99.90
35804;DHT22;21924;51.934;7.414;2022-10-31T00:34:44;12.50;99.90
35804;DHT22;21924;51.934;7.414;2022-10-31T00:37:28;12.50;99.90
35804;DHT22;21924;51.934;7.414;2022-10-31T00:40:12;12.40;99.90
35804;DHT22;21924;51.934;7.414;2022-10-31T00:42:56;12.40;99.90
35804;DHT22;21924;51.934;7.414;2022-10-31T00:45:41;12.40;99.90
35804;DHT22;21924;51.934;7.414;2022-10-31T00:48:25;12.40;99.90
35804;DHT22;21924;51.934;7.414;2022-10-31T00:51:09;12.40;99.90
35804;DHT22;21924;51.934;7.414;2022-10-31T00:53:53;12.30;99.90
35804;DHT22;21924;51.934;7.414;2022-10-31T00:56:37;12.30;99.90
35804;DHT22;21924;51.934;7.414;2022-10-31T00:59:21;12.30;99.90
35804;DHT22;21924;51.934;7.414;2022-10-31T01:02:05;12.30;99.90
35804;DHT22;21924;51.934;7.414;2022-10-31T01:04:49;12.30;99.90
35804;DHT22;21924;51.934;7.414;2022-10-31T01:07:40;12.30;99.90
35804;DHT22;21924;51.934;7.414;2022-10-31T01:10:25;12.30;99.90
35804;DHT22;21924;51.934;7.414;2022-10-31T01:13:09;12.30;99.90
35804;DHT22;21924;51.934;7.414;2022-10-31T01:15:54;12.20;99.90
35804;DHT22;21924;51.934;7.414;2022-10-31T01:18:38;12.20;99.90
35804;DHT22;21924;51.934;7.414;2022-10-31T01:21:23;12.20;99.90
35804;DHT22;21924;51.934;7.414;2022-10-31T01:24:08;12.10;99.90
35804;DHT22;21924;51.934;7.414;2022-10-31T01:26:52;12.20;99.90
35804;DHT22;21924;51.934;7.414;2022-10-31T01:29:36;12.20;99.90
35804;DHT22;21924;51.934;7.414;2022-10-31T01:32:20;12.10;99.90
35804;DHT22;21924;51.934;7.414;2022-10-31T01:35:04;12.10;99.90
35804;DHT22;21924;51.934;7.414;2022-10-31T01:37:48;12.00;99.90
35804;DHT22;21924;51.934;7.414;2022-10-31T01:40:32;12.00;99.90
35804;DHT22;21924;51.934;7.414;2022-10-31T01:43:16;12.10;99.90
35804;DHT22;21924;51.934;7.414;2022-10-31T01:46:00;12.00;99.90
35804;DHT22;21924;51.934;7.414;2022-10-31T01:48:44;12.00;99.90
35804;DHT22;21924;51.934;7.414;2022-10-31T01:51:30;12.00;99.90
35804;DHT22;21924;51.934;7.414;2022-10-31T01:54:15;12.20;99.90
35804;DHT22;21924;51.934;7.414;2022-10-31T01:57:00;12.10;99.90
35804;DHT22;21924;51.934;7.414;2022-10-31T01:59:47;12.10;99.90
35804;DHT22;21924;51.934;7.414;2022-10-31T02:02:32;12.00;99.90
35804;DHT22;21924;51.934;7.414;2022-10-31T02:05:17;12.00;99.90
35804;DHT22;21924;51.934;7.414;2022-10-31T02:08:03;12.00;99.90
35804;DHT22;21924;51.934;7.414;2022-10-31T02:10:48;12.00;99.90
35804;DHT22;21924;51.934;7.414;2022-10-31T02:13:32;11.90;99.90
35804;DHT22;21924;51.934;7.414;2022-10-31T02:16:17;11.90;99.90
35804;DHT22;21924;51.934;7.414;2022-10-31T02:19:01;11.90;99.90
35804;DHT22;21924;51.934;7.414;2022-10-31T02:21:52;11.80;99.90
35804;DHT22;21924;51.934;7.414;2022-10-31T02:24:42;11.80;99.90
35804;DHT22;21924;51.934;7.414;2022-10-31T02:30:16;11.70;99.90
35804;DHT22;21924;51.934;7.414;2022-10-31T02:44:37;11.60;99.90
35804;DHT22;21924;51.934;7.414;2022-10-31T02:47:25;11.60;99.90
35804;DHT22;21924;51.934;7.414;2022-10-31T02:50:13;11.50;99.90
35804;DHT22;21924;51.934;7.414;2022-10-31T02:52:58;11.50;99.90
35804;DHT22;21924;51.934;7.414;2022-10-31T02:55:44;11.50;99.90
35804;DHT22;21924;51.934;7.414;2022-10-31T02:58:31;11.40;99.90
35804;DHT22;21924;51.934;7.414;2022-10-31T03:07:22;11.40;99.90
35804;DHT22;21924;51.934;7.414;2022-10-31T03:15:45;11.40;99.90
35804;DHT22;21924;51.934;7.414;2022-10-31T03:18:34;11.40;99.90
35804;DHT22;21924;51.934;7.414;2022-10-31T03:21:21;11.40;99.90
35804;DHT22;21924;51.934;7.414;2022-10-31T03:24:06;11.30;99.90
35804;DHT22;21924;51.934;7.414;2022-10-31T03:26:53;11.40;99.90
35804;DHT22;21924;51.934;7.414;2022-10-31T03:29:38;11.30;99.90
35804;DHT22;21924;51.934;7.414;2022-10-31T03:32:35;11.30;99.90
35804;DHT22;21924;51.934;7.414;2022-10-31T03:35:20;11.30;99.90
35804;DHT22;21924;51.934;7.414;2022-10-31T03:38:06;11.30;99.90
35804;DHT22;21924;51.934;7.414;2022-10-31T03:40:51;11.40;99.90
35804;DHT22;21924;51.934;7.414;2022-10-31T03:43:36;11.30;99.90
35804;DHT22;21924;51.934;7.414;2022-10-31T03:46:22;11.30;99.90
35804;DHT22;21924;51.934;7.414;2022-10-31T03:49:06;11.20;99.90
35804;DHT22;21924;51.934;7.414;2022-10-31T03:52:09;11.20;99.90
35804;DHT22;21924;51.934;7.414;2022-10-31T03:54:56;11.10;99.90
35804;DHT22;21924;51.934;7.414;2022-10-31T04:00:26;11.00;99.90
35804;DHT22;21924;51.934;7.414;2022-10-31T04:03:19;11.00;99.90
35804;DHT22;21924;51.934;7.414;2022-10-31T04:06:08;10.90;99.90
35804;DHT22;21924;51.934;7.414;2022-10-31T04:08:56;10.90;99.90
35804;DHT22;21924;51.934;7.414;2022-10-31T04:11:43;10.90;99.90
35804;DHT22;21924;51.934;7.414;2022-10-31T04:14:29;10.90;99.90
35804;DHT22;21924;51.934;7.414;2022-10-31T04:17:15;10.90;99.90
35804;DHT22;21924;51.934;7.414;2022-10-31T04:20:00;10.90;99.90
35804;DHT22;21924;51.934;7.414;2022-10-31T04:22:44;10.90;99.90
35804;DHT22;21924;51.934;7.414;2022-10-31T04:25:29;10.90;99.90
35804;DHT22;21924;51.934;7.414;2022-10-31T04:28:12;10.80;99.90
35804;DHT22;21924;51.934;7.414;2022-10-31T04:30:57;10.80;99.90
35804;DHT22;21924;51.934;7.414;2022-10-31T04:33:41;10.80;99.90
35804;DHT22;21924;51.934;7.414;2022-10-31T04:36:25;10.80;99.90
35804;DHT22;21924;51.934;7.414;2022-10-31T04:39:09;10.70;99.90
35804;DHT22;21924;51.934;7.414;2022-10-31T04:41:53;10.70;99.90
35804;DHT22;21924;51.934;7.414;2022-10-31T04:44:37;10.60;99.90
35804;DHT22;21924;51.934;7.414;2022-10-31T04:47:21;10.60;99.90
35804;DHT22;21924;51.934;7.414;2022-10-31T04:50:05;10.60;99.90
35804;DHT22;21924;51.934;7.414;2022-10-31T04:52:50;10.60;99.90
35804;DHT22;21924;51.934;7.414;2022-10-31T04:55:37;10.50;99.90
35804;DHT22;21924;51.934;7.414;2022-10-31T04:58:21;10.50;99.90
35804;DHT22;21924;51.934;7.414;2022-10-31T05:01:05;10.50;99.90
35804;DHT22;21924;51.934;7.414;2022-10-31T05:03:51;10.50;99.90
35804;DHT22;21924;51.934;7.414;2022-10-31T05:06:35;10.40;99.90
35804;DHT22;21924;51.934;7.414;2022-10-31T05:09:19;10.50;99.90
35804;DHT22;21924;51.934;7.414;2022-10-31T05:12:03;10.50;99.90
35804;DHT22;21924;51.934;7.414;2022-10-31T05:14:47;10.60;99.90
35804;DHT22;21924;51.934;7.414;2022-10-31T05:17:32;10.60;99.90
35804;DHT22;21924;51.934;7.414;2022-10-31T05:20:16;10.70;99.90
35804;DHT22;21924;51.934;7.414;2022-10-31T05:23:01;10.70;99.90
35804;DHT22;21924;51.934;7.414;2022-10-31T05:25:45;10.70;99.90
35804;DHT22;21924;51.934;7.414;2022-10-31T05:28:29;10.80;99.90
35804;DHT22;21924;51.934;7.414;2022-10-31T05:31:13;10.90;99.90
35804;DHT22;21924;51.934;7.414;2022-10-31T05:33:57;10.90;99.90
35804;DHT22;21924;51.934;7.414;2022-10-31T05:36:41;10.90;99.90
35804;DHT22;21924;51.934;7.414;2022-10-31T05:39:25;10.90;99.90
35804;DHT22;21924;51.934;7.414;2022-10-31T05:42:09;10.90;99.90
35804;DHT22;21924;51.934;7.414;2022-10-31T05:44:53;10.80;99.90
35804;DHT22;21924;51.934;7.414;2022-10-31T05:47:38;10.80;99.90
35804;DHT22;21924;51.934;7.414;2022-10-31T05:50:22;10.70;99.90
35804;DHT22;21924;51.934;7.414;2022-10-31T05:53:07;10.70;99.90
35804;DHT22;21924;51.934;7.414;2022-10-31T05:55:51;10.60;99.90
35804;DHT22;21924;51.934;7.414;2022-10-31T05:58:35;10.60;99.90
35804;DHT22;21924;51.934;7.414;2022-10-31T06:01:19;10.70;99.90
35804;DHT22;21924;51.934;7.414;2022-10-31T06:04:03;10.70;99.90
35804;DHT22;21924;51.934;7.414;2022-10-31T06:06:47;10.60;99.90
35804;DHT22;21924;51.934;7.414;2022-10-31T06:09:32;10.60;99.90
35804;DHT22;21924;51.934;7.414;2022-10-31T06:12:16;10.60;99.90
35804;DHT22;21924;51.934;7.414;2022-10-31T06:15:00;10.50;99.90
35804;DHT22;21924;51.934;7.414;2022-10-31T06:17:44;10.60;99.90
35804;DHT22;21924;51.934;7.414;2022-10-31T06:20:28;10.60;99.90
35804;DHT22;21924;51.934;7.414;2022-10-31T06:23:12;10.70;99.90
35804;DHT22;21924;51.934;7.414;2022-10-31T06:25:56;10.70;99.90
35804;DHT22;21924;51.934;7.414;2022-10-31T06:28:41;10.70;99.90
35804;DHT22;21924;51.934;7.414;2022-10-31T06:31:25;10.60;99.90
35804;DHT22;21924;51.934;7.414;2022-10-31T06:34:09;10.60;99.90
35804;DHT22;21924;51.934;7.414;2022-10-31T06:36:53;10.70;99.90
35804;DHT22;21924;51.934;7.414;2022-10-31T06:39:37;10.70;99.90
35804;DHT22;21924;51.934;7.414;2022-10-31T06:42:21;10.70;99.90
35804;DHT22;21924;51.934;7.414;2022-10-31T06:45:06;10.80;99.90
35804;DHT22;21924;51.934;7.414;2022-10-31T06:47:51;10.90;99.90
35804;DHT22;21924;51.934;7.414;2022-10-31T06:50:36;10.90;99.90
35804;DHT22;21924;51.934;7.414;2022-10-31T06:53:20;10.90;99.90
35804;DHT22;21924;51.934;7.414;2022-10-31T06:56:04;11.00;99.90
35804;DHT22;21924;51.934;7.414;2022-10-31T06:58:48;11.10;99.90
35804;DHT22;21924;51.934;7.414;2022-10-31T07:01:33;11.00;99.90
35804;DHT22;21924;51.934;7.414;2022-10-31T07:04:17;11.10;99.90
35804;DHT22;21924;51.934;7.414;2022-10-31T07:07:01;11.10;99.90
35804;DHT22;21924;51.934;7.414;2022-10-31T07:09:45;11.10;99.90
35804;DHT22;21924;51.934;7.414;2022-10-31T07:12:30;11.20;99.90
35804;DHT22;21924;51.934;7.414;2022-10-31T07:15:14;11.20;99.90
35804;DHT22;21924;51.934;7.414;2022-10-31T07:18:01;11.40;99.90
35804;DHT22;21924;51.934;7.414;2022-10-31T07:20:46;11.50;99.90
35804;DHT22;21924;51.934;7.414;2022-10-31T07:23:30;11.60;99.90
35804;DHT22;21924;51.934;7.414;2022-10-31T07:26:14;11.80;99.90
35804;DHT22;21924;51.934;7.414;2022-10-31T07:28:58;11.80;99.90
35804;DHT22;21924;51.934;7.414;2022-10-31T07:31:44;11.90;99.90
35804;DHT22;21924;51.934;7.414;2022-10-31T07:34:29;12.00;99.90
35804;DHT22;21924;51.934;7.414;2022-10-31T07:37:13;12.00;99.90
35804;DHT22;21924;51.934;7.414;2022-10-31T07:39:57;12.10;99.90
35804;DHT22;21924;51.934;7.414;2022-10-31T07:42:42;12.20;99.90
35804;DHT22;21924;51.934;7.414;2022-10-31T07:45:26;12.30;99.90
35804;DHT22;21924;51.934;7.414;2022-10-31T07:48:10;12.30;99.90
35804;DHT22;21924;51.934;7.414;2022-10-31T07:50:55;12.50;99.90
35804;DHT22;21924;51.934;7.414;2022-10-31T07:53:39;12.50;99.90
35804;DHT22;21924;51.934;7.414;2022-10-31T07:56:23;12.60;99.90
35804;DHT22;21924;51.934;7.414;2022-10-31T07:59:07;12.70;99.90
35804;DHT22;21924;51.934;7.414;2022-10-31T08:01:51;12.90;99.90
35804;DHT22;21924;51.934;7.414;2022-10-31T08:04:36;13.00;99.90
35804;DHT22;21924;51.934;7.414;2022-10-31T08:07:19;13.10;99.90
35804;DHT22;21924;51.934;7.414;2022-10-31T08:10:04;13.20;99.90
35804;DHT22;21924;51.934;7.414;2022-10-31T08:12:54;13.30;99.90
35804;DHT22;21924;51.934;7.414;2022-10-31T08:15:39;13.40;99.90
35804;DHT22;21924;51.934;7.414;2022-10-31T08:18:25;13.40;99.90
35804;DHT22;21924;51.934;7.414;2022-10-31T08:21:09;13.40;99.90
35804;DHT22;21924;51.934;7.414;2022-10-31T08:23:54;13.40;99.90
35804;DHT22;21924;51.934;7.414;2022-10-31T08:26:38;13.40;99.90
35804;DHT22;21924;51.934;7.414;2022-10-31T08:29:22;13.40;99.90
35804;DHT22;21924;51.934;7.414;2022-10-31T08:32:06;13.40;99.90
35804;DHT22;21924;51.934;7.414;2022-10-31T08:34:50;13.30;99.90
35804;DHT22;21924;51.934;7.414;2022-10-31T08:37:34;13.30;99.90
35804;DHT22;21924;51.934;7.414;2022-10-31T08:40:19;13.40;99.90
35804;DHT22;21924;51.934;7.414;2022-10-31T08:43:06;13.40;99.90
35804;DHT22;21924;51.934;7.414;2022-10-31T08:45:52;13.40;99.90
35804;DHT22;21924;51.934;7.414;2022-10-31T08:48:38;13.40;99.90
35804;DHT22;21924;51.934;7.414;2022-10-31T08:51:22;13.50;99.90
35804;DHT22;21924;51.934;7.414;2022-10-31T08:54:06;13.60;99.90
35804;DHT22;21924;51.934;7.414;2022-10-31T08:56:54;13.60;99.90
35804;DHT22;21924;51.934;7.414;2022-10-31T08:59:39;13.70;99.90
35804;DHT22;21924;51.934;7.414;2022-10-31T09:02:23;13.80;99.90
35804;DHT22;21924;51.934;7.414;2022-10-31T09:05:07;13.80;99.90
35804;DHT22;21924;51.934;7.414;2022-10-31T09:07:54;13.80;99.90
35804;DHT22;21924;51.934;7.414;2022-10-31T09:10:39;13.80;99.90
35804;DHT22;21924;51.934;7.414;2022-10-31T09:13:23;13.80;99.90
35804;DHT22;21924;51.934;7.414;2022-10-31T09:16:08;13.80;99.90
35804;DHT22;21924;51.934;7.414;2022-10-31T09:18:52;13.90;99.90
35804;DHT22;21924;51.934;7.414;2022-10-31T09:21:36;14.00;99.90
35804;DHT22;21924;51.934;7.414;2022-10-31T09:24:20;13.90;99.90
35804;DHT22;21924;51.934;7.414;2022-10-31T09:27:04;13.90;99.90
35804;DHT22;21924;51.934;7.414;2022-10-31T09:29:48;14.00;99.90
35804;DHT22;21924;51.934;7.414;2022-10-31T09:32:32;14.00;99.90
35804;DHT22;21924;51.934;7.414;2022-10-31T09:35:16;14.10;99.90
35804;DHT22;21924;51.934;7.414;2022-10-31T09:38:04;14.20;99.90
35804;DHT22;21924;51.934;7.414;2022-10-31T09:40:55;14.30;99.90
35804;DHT22;21924;51.934;7.414;2022-10-31T09:49:53;14.60;99.90
35804;DHT22;21924;51.934;7.414;2022-10-31T09:52:39;14.50;99.90
35804;DHT22;21924;51.934;7.414;2022-10-31T09:55:47;14.50;99.90
35804;DHT22;21924;51.934;7.414;2022-10-31T09:58:40;14.50;99.90
35804;DHT22;21924;51.934;7.414;2022-10-31T10:01:37;14.60;99.90
35804;DHT22;21924;51.934;7.414;2022-10-31T10:10:17;14.80;99.90
35804;DHT22;21924;51.934;7.414;2022-10-31T10:18:43;15.10;99.90
35804;DHT22;21924;51.934;7.414;2022-10-31T10:21:51;15.30;99.90
35804;DHT22;21924;51.934;7.414;2022-10-31T10:27:48;15.50;99.90
35804;DHT22;21924;51.934;7.414;2022-10-31T10:33:22;15.60;99.90
35804;DHT22;21924;51.934;7.414;2022-10-31T10:36:12;15.50;99.90
35804;DHT22;21924;51.934;7.414;2022-10-31T10:38:58;15.50;99.90
35804;DHT22;21924;51.934;7.414;2022-10-31T10:41:46;15.60;99.90
35804;DHT22;21924;51.934;7.414;2022-10-31T10:44:31;15.60;99.90
35804;DHT22;21924;51.934;7.414;2022-10-31T10:47:43;15.60;99.90
35804;DHT22;21924;51.934;7.414;2022-10-31T10:50:31;15.70;99.90
35804;DHT22;21924;51.934;7.414;2022-10-31T10:56:19;16.00;99.90
35804;DHT22;21924;51.934;7.414;2022-10-31T10:59:04;16.00;99.90
35804;DHT22;21924;51.934;7.414;2022-10-31T11:01:49;16.10;99.90
35804;DHT22;21924;51.934;7.414;2022-10-31T11:04:35;16.20;99.90
35804;DHT22;21924;51.934;7.414;2022-10-31T11:07:20;16.30;99.90
35804;DHT22;21924;51.934;7.414;2022-10-31T11:10:04;16.40;99.90
35804;DHT22;21924;51.934;7.414;2022-10-31T11:12:58;16.60;99.90
35804;DHT22;21924;51.934;7.414;2022-10-31T11:15:55;16.90;99.90
35804;DHT22;21924;51.934;7.414;2022-10-31T11:18:41;17.30;99.90
35804;DHT22;21924;51.934;7.414;2022-10-31T11:21:29;17.60;99.90
35804;DHT22;21924;51.934;7.414;2022-10-31T11:24:18;17.60;99.90
35804;DHT22;21924;51.934;7.414;2022-10-31T11:27:05;17.40;99.90
35804;DHT22;21924;51.934;7.414;2022-10-31T11:29:53;17.30;99.90
35804;DHT22;21924;51.934;7.414;2022-10-31T11:32:48;17.50;99.90
35804;DHT22;21924;51.934;7.414;2022-10-31T11:35:33;17.70;99.90
35804;DHT22;21924;51.934;7.414;2022-10-31T11:38:18;17.60;99.90
35804;DHT22;21924;51.934;7.414;2022-10-31T11:41:06;17.50;99.90
35804;DHT22;21924;51.934;7.414;2022-10-31T11:43:54;17.30;99.90
35804;DHT22;21924;51.934;7.414;2022-10-31T11:46:48;17.20;99.90
35804;DHT22;21924;51.934;7.414;2022-10-31T11:49:37;17.20;99.90
35804;DHT22;21924;51.934;7.414;2022-10-31T11:52:23;17.10;99.90
35804;DHT22;21924;51.934;7.414;2022-10-31T11:57:55;17.10;99.90
35804;DHT22;21924;51.934;7.414;2022-10-31T12:00:40;17.00;99.90
35804;DHT22;21924;51.934;7.414;2022-10-31T12:03:41;17.00;99.90
35804;DHT22;21924;51.934;7.414;2022-10-31T12:06:31;17.00;99.90
35804;DHT22;21924;51.934;7.414;2022-10-31T12:09:26;17.10;99.90
35804;DHT22;21924;51.934;7.414;2022-10-31T12:12:24;17.30;99.90
35804;DHT22;21924;51.934;7.414;2022-10-31T12:18:02;17.60;99.90
35804;DHT22;21924;51.934;7.414;2022-10-31T12:26:34;17.80;99.90
35804;DHT22;21924;51.934;7.414;2022-10-31T12:29:39;17.70;99.90
35804;DHT22;21924;51.934;7.414;2022-10-31T12:32:32;17.70;99.90
35804;DHT22;21924;51.934;7.414;2022-10-31T12:35:25;17.60;99.90
35804;DHT22;21924;51.934;7.414;2022-10-31T12:38:15;17.60;99.90
35804;DHT22;21924;51.934;7.414;2022-10-31T12:41:17;17.70;99.90
35804;DHT22;21924;51.934;7.414;2022-10-31T12:44:15;17.70;99.90
35804;DHT22;21924;51.934;7.414;2022-10-31T12:47:17;17.70;99.90
35804;DHT22;21924;51.934;7.414;2022-10-31T12:52:54;17.90;99.90
35804;DHT22;21924;51.934;7.414;2022-10-31T12:55:45;17.90;99.90
35804;DHT22;21924;51.934;7.414;2022-10-31T12:58:32;17.80;99.90
35804;DHT22;21924;51.934;7.414;2022-10-31T13:01:25;17.80;99.90
35804;DHT22;21924;51.934;7.414;2022-10-31T13:07:11;17.70;99.90
35804;DHT22;21924;51.934;7.414;2022-10-31T13:10:04;17.70;99.90
35804;DHT22;21924;51.934;7.414;2022-10-31T13:12:53;17.60;99.90
35804;DHT22;21924;51.934;7.414;2022-10-31T13:15:55;17.70;99.90
35804;DHT22;21924;51.934;7.414;2022-10-31T13:18:42;17.80;99.90
35804;DHT22;21924;51.934;7.414;2022-10-31T13:21:34;17.70;99.90
35804;DHT22;21924;51.934;7.414;2022-10-31T13:24:21;17.70;99.90
35804;DHT22;21924;51.934;7.414;2022-10-31T13:27:11;17.70;99.90
35804;DHT22;21924;51.934;7.414;2022-10-31T13:30:12;17.70;99.90
35804;DHT22;21924;51.934;7.414;2022-10-31T13:38:50;17.70;99.90
35804;DHT22;21924;51.934;7.414;2022-10-31T13:41:49;17.70;99.90
35804;DHT22;21924;51.934;7.414;2022-10-31T13:44:35;17.70;99.90
35804;DHT22;21924;51.934;7.414;2022-10-31T13:47:24;17.70;99.90
35804;DHT22;21924;51.934;7.414;2022-10-31T13:50:19;17.60;99.90
35804;DHT22;21924;51.934;7.414;2022-10-31T13:53:19;17.60;99.90
35804;DHT22;21924;51.934;7.414;2022-10-31T14:01:50;17.60;99.90
35804;DHT22;21924;51.934;7.414;2022-10-31T14:04:38;17.60;99.90
35804;DHT22;21924;51.934;7.414;2022-10-31T14:07:28;17.60;99.90
35804;DHT22;21924;51.934;7.414;2022-10-31T14:10:29;17.60;99.90
35804;DHT22;21924;51.934;7.414;2022-10-31T14:16:23;17.50;99.90
35804;DHT22;21924;51.934;7.414;2022-10-31T14:19:13;17.50;99.90
35804;DHT22;21924;51.934;7.414;2022-10-31T14:21:58;17.40;99.90
35804;DHT22;21924;51.934;7.414;2022-10-31T14:24:42;17.40;99.90
35804;DHT22;21924;51.934;7.414;2022-10-31T14:30:14;17.40;99.90
35804;DHT22;21924;51.934;7.414;2022-10-31T14:33:00;17.40;99.90
35804;DHT22;21924;51.934;7.414;2022-10-31T14:36:20;17.40;99.90
35804;DHT22;21924;51.934;7.414;2022-10-31T14:41:44;17.40;99.90
35804;DHT22;21924;51.934;7.414;2022-10-31T14:44:43;17.30;99.90
35804;DHT22;21924;51.934;7.414;2022-10-31T14:47:45;17.30;99.90
35804;DHT22;21924;51.934;7.414;2022-10-31T14:53:28;17.20;99.90
35804;DHT22;21924;51.934;7.414;2022-10-31T14:56:14;17.20;99.90
35804;DHT22;21924;51.934;7.414;2022-10-31T14:59:02;17.20;99.90
35804;DHT22;21924;51.934;7.414;2022-10-31T15:01:54;17.10;99.90
35804;DHT22;21924;51.934;7.414;2022-10-31T15:04:39;17.10;99.90
35804;DHT22;21924;51.934;7.414;2022-10-31T15:07:24;17.00;99.90
35804;DHT22;21924;51.934;7.414;2022-10-31T15:10:20;17.00;99.90
35804;DHT22;21924;51.934;7.414;2022-10-31T15:13:08;17.00;99.90
35804;DHT22;21924;51.934;7.414;2022-10-31T15:15:52;17.00;99.90
35804;DHT22;21924;51.934;7.414;2022-10-31T15:18:39;17.00;99.90
35804;DHT22;21924;51.934;7.414;2022-10-31T15:21:28;17.00;99.90
35804;DHT22;21924;51.934;7.414;2022-10-31T15:24:15;16.90;99.90
35804;DHT22;21924;51.934;7.414;2022-10-31T15:27:01;16.90;99.90
35804;DHT22;21924;51.934;7.414;2022-10-31T15:29:47;16.80;99.90
35804;DHT22;21924;51.934;7.414;2022-10-31T15:32:32;16.80;99.90
35804;DHT22;21924;51.934;7.414;2022-10-31T15:38:09;16.60;99.90
35804;DHT22;21924;51.934;7.414;2022-10-31T15:40:55;16.60;99.90
35804;DHT22;21924;51.934;7.414;2022-10-31T15:43:40;16.60;99.90
35804;DHT22;21924;51.934;7.414;2022-10-31T15:46:28;16.40;99.90
35804;DHT22;21924;51.934;7.414;2022-10-31T15:49:20;16.40;99.90
35804;DHT22;21924;51.934;7.414;2022-10-31T15:54:56;16.20;99.90
35804;DHT22;21924;51.934;7.414;2022-10-31T15:57:41;16.10;99.90
35804;DHT22;21924;51.934;7.414;2022-10-31T16:00:31;16.10;99.90
35804;DHT22;21924;51.934;7.414;2022-10-31T16:06:03;16.10;99.90
35804;DHT22;21924;51.934;7.414;2022-10-31T16:08:48;16.10;99.90
35804;DHT22;21924;51.934;7.414;2022-10-31T16:11:34;16.10;99.90
35804;DHT22;21924;51.934;7.414;2022-10-31T16:14:23;16.10;99.90
35804;DHT22;21924;51.934;7.414;2022-10-31T16:17:12;16.10;99.90
35804;DHT22;21924;51.934;7.414;2022-10-31T16:19:58;16.10;99.90
35804;DHT22;21924;51.934;7.414;2022-10-31T16:22:46;16.10;99.90
35804;DHT22;21924;51.934;7.414;2022-10-31T16:25:37;16.00;99.90
35804;DHT22;21924;51.934;7.414;2022-10-31T16:28:22;16.10;99.90
35804;DHT22;21924;51.934;7.414;2022-10-31T16:31:14;16.10;99.90
35804;DHT22;21924;51.934;7.414;2022-10-31T16:34:02;16.10;99.90
35804;DHT22;21924;51.934;7.414;2022-10-31T16:36:46;16.00;99.90
35804;DHT22;21924;51.934;7.414;2022-10-31T16:39:31;16.00;99.90
35804;DHT22;21924;51.934;7.414;2022-10-31T16:42:15;16.00;99.90
35804;DHT22;21924;51.934;7.414;2022-10-31T16:44:59;16.00;99.90
35804;DHT22;21924;51.934;7.414;2022-10-31T16:47:43;15.90;99.90
35804;DHT22;21924;51.934;7.414;2022-10-31T16:50:28;16.00;99.90
35804;DHT22;21924;51.934;7.414;2022-10-31T16:53:12;15.90;99.90
35804;DHT22;21924;51.934;7.414;2022-10-31T16:56:01;16.00;99.90
35804;DHT22;21924;51.934;7.414;2022-10-31T16:58:45;15.90;99.90
35804;DHT22;21924;51.934;7.414;2022-10-31T17:01:30;15.90;99.90
35804;DHT22;21924;51.934;7.414;2022-10-31T17:04:15;15.90;99.90
35804;DHT22;21924;51.934;7.414;2022-10-31T17:06:59;15.90;99.90
35804;DHT22;21924;51.934;7.414;2022-10-31T17:09:42;15.90;99.90
35804;DHT22;21924;51.934;7.414;2022-10-31T17:12:27;15.90;99.90
35804;DHT22;21924;51.934;7.414;2022-10-31T17:15:15;15.80;99.90
35804;DHT22;21924;51.934;7.414;2022-10-31T17:18:00;15.80;99.90
35804;DHT22;21924;51.934;7.414;2022-10-31T17:20:44;15.80;99.90
35804;DHT22;21924;51.934;7.414;2022-10-31T17:23:28;15.80;99.90
35804;DHT22;21924;51.934;7.414;2022-10-31T17:26:13;15.70;99.90
35804;DHT22;21924;51.934;7.414;2022-10-31T17:28:57;15.70;99.90
35804;DHT22;21924;51.934;7.414;2022-10-31T17:31:44;15.70;99.90
35804;DHT22;21924;51.934;7.414;2022-10-31T17:34:29;15.70;99.90
35804;DHT22;21924;51.934;7.414;2022-10-31T17:37:13;15.70;99.90
35804;DHT22;21924;51.934;7.414;2022-10-31T17:39:57;15.60;99.90
35804;DHT22;21924;51.934;7.414;2022-10-31T17:42:42;15.60;99.90
35804;DHT22;21924;51.934;7.414;2022-10-31T17:45:26;15.60;99.90
35804;DHT22;21924;51.934;7.414;2022-10-31T17:48:10;15.60;99.90
35804;DHT22;21924;51.934;7.414;2022-10-31T17:50:58;15.50;99.90
35804;DHT22;21924;51.934;7.414;2022-10-31T17:53:42;15.50;99.90
35804;DHT22;21924;51.934;7.414;2022-10-31T17:56:26;15.40;99.90
35804;DHT22;21924;51.934;7.414;2022-10-31T17:59:10;15.40;99.90
35804;DHT22;21924;51.934;7.414;2022-10-31T18:01:55;15.40;99.90
35804;DHT22;21924;51.934;7.414;2022-10-31T18:04:39;15.30;99.90
35804;DHT22;21924;51.934;7.414;2022-10-31T18:07:23;15.30;99.90
35804;DHT22;21924;51.934;7.414;2022-10-31T18:10:07;15.40;99.90
35804;DHT22;21924;51.934;7.414;2022-10-31T18:12:52;15.40;99.90
35804;DHT22;21924;51.934;7.414;2022-10-31T18:15:39;15.30;99.90
35804;DHT22;21924;51.934;7.414;2022-10-31T18:18:23;15.30;99.90
35804;DHT22;21924;51.934;7.414;2022-10-31T18:21:08;15.20;99.90
35804;DHT22;21924;51.934;7.414;2022-10-31T18:23:53;15.20;99.90
35804;DHT22;21924;51.934;7.414;2022-10-31T18:26:37;15.30;99.90
35804;DHT22;21924;51.934;7.414;2022-10-31T18:29:22;15.30;99.90
35804;DHT22;21924;51.934;7.414;2022-10-31T18:32:06;15.20;99.90
35804;DHT22;21924;51.934;7.414;2022-10-31T18:34:50;15.20;99.90
35804;DHT22;21924;51.934;7.414;2022-10-31T18:37:34;15.20;99.90
35804;DHT22;21924;51.934;7.414;2022-10-31T18:40:18;15.20;99.90
35804;DHT22;21924;51.934;7.414;2022-10-31T18:43:02;15.20;99.90
35804;DHT22;21924;51.934;7.414;2022-10-31T18:45:46;15.20;99.90
35804;DHT22;21924;51.934;7.414;2022-10-31T18:48:31;15.30;99.90
35804;DHT22;21924;51.934;7.414;2022-10-31T18:51:15;15.40;99.90
35804;DHT22;21924;51.934;7.414;2022-10-31T18:54:01;15.30;99.90
35804;DHT22;21924;51.934;7.414;2022-10-31T18:56:45;15.30;99.90
35804;DHT22;21924;51.934;7.414;2022-10-31T18:59:29;15.30;99.90
35804;DHT22;21924;51.934;7.414;2022-10-31T19:02:13;15.20;99.90
35804;DHT22;21924;51.934;7.414;2022-10-31T19:04:57;15.20;99.90
35804;DHT22;21924;51.934;7.414;2022-10-31T19:07:41;15.30;99.90
35804;DHT22;21924;51.934;7.414;2022-10-31T19:10:25;15.30;99.90
35804;DHT22;21924;51.934;7.414;2022-10-31T19:13:10;15.30;99.90
35804;DHT22;21924;51.934;7.414;2022-10-31T19:15:54;15.40;99.90